Time;durP1;ratioP1;P1;durP2;ratioP2;P2;SDS_P1;SDS_P2;PMS_P1;PMS_P2;Temp;Humidity;BMP_temperature;BMP_pressure;BME280_temperature;BME280_humidity;BME280_pressure;Samples;Min_cycle;Max_cycle;Signal;HPM_P1;HPM_P2
2023/05/26 00:00:12;;;;;;;12.43;7.55;;;;;;;;;;6213830;23;20028;-86
2023/05/26 00:02:39;;;;;;;12.38;7.80;;;;;;;;;;6212535;23;20082;-86
2023/05/26 00:05:06;;;;;;;11.15;7.35;;;;;;;;;;6187729;23;20008;-86
2023/05/26 00:07:32;;;;;;;12.23;7.35;;;;;;;;;;6213858;23;20003;-86
2023/05/26 00:09:57;;;;;;;13.88;7.47;;;;;;;;;;6212159;23;20005;-87
2023/05/26 00:12:23;;;;;;;14.27;7.57;;;;;;;;;;6214416;23;20054;-86
2023/05/26 00:14:48;;;;;;;15.00;7.22;;;;;;;;;;6215423;23;20065;-86
2023/05/26 00:17:16;;;;;;;14.18;8.07;;;;;;;;;;6215725;23;20543;-86
2023/05/26 00:19:42;;;;;;;13.38;8.15;;;;;;;;;;6215527;23;20428;-86
2023/05/26 00:22:07;;;;;;;25.02;8.23;;;;;;;;;;6214307;23;20424;-86
2023/05/26 00:24:33;;;;;;;16.98;8.55;;;;;;;;;;6189244;23;20015;-87
2023/05/26 00:26:58;;;;;;;14.65;8.50;;;;;;;;;;6215251;23;19993;-86
2023/05/26 00:29:24;;;;;;;20.70;8.02;;;;;;;;;;6215808;23;20058;-86
2023/05/26 00:31:49;;;;;;;18.70;8.90;;;;;;;;;;6215394;23;20059;-87
2023/05/26 00:34:15;;;;;;;17.83;8.98;;;;;;;;;;6215481;23;20000;-86
2023/05/26 00:36:40;;;;;;;18.08;8.68;;;;;;;;;;6215262;23;20005;-86
2023/05/26 00:39:05;;;;;;;16.08;8.63;;;;;;;;;;6215726;23;20027;-86
2023/05/26 00:41:31;;;;;;;17.48;9.43;;;;;;;;;;6214788;23;20023;-86
2023/05/26 00:43:56;;;;;;;15.18;8.60;;;;;;;;;;6213857;23;20009;-86
2023/05/26 00:46:22;;;;;;;18.38;8.52;;;;;;;;;;6215591;23;20005;-86
2023/05/26 00:48:47;;;;;;;19.25;8.65;;;;;;;;;;6215544;23;20004;-86
2023/05/26 00:51:13;;;;;;;16.17;8.77;;;;;;;;;;6215192;23;20486;-86
2023/05/26 00:53:43;;;;;;;21.65;8.55;;;;;;;;;;6215212;23;20000;-86
2023/05/26 00:56:09;;;;;;;;;;;;;;;;;;6215442;23;20012;-85
2023/05/26 00:58:34;;;;;;;18.60;8.57;;;;;;;;;;6214429;23;20414;-86
2023/05/26 01:00:59;;;;;;;18.77;9.00;;;;;;;;;;6188546;23;20063;-86
2023/05/26 01:03:26;;;;;;;22.02;8.70;;;;;;;;;;6214017;23;20054;-86
2023/05/26 01:05:53;;;;;;;17.65;8.88;;;;;;;;;;6189276;23;20005;-86
2023/05/26 01:08:18;;;;;;;14.30;8.70;;;;;;;;;;6215357;23;20009;-86
2023/05/26 01:10:44;;;;;;;18.17;9.80;;;;;;;;;;6215078;23;20033;-86
2023/05/26 01:13:12;;;;;;;14.82;9.25;;;;;;;;;;6213430;23;20024;-86
2023/05/26 01:15:49;;;;;;;16.10;8.90;;;;;;;;;;6189007;23;20008;-86
2023/05/26 01:18:23;;;;;;;18.33;9.43;;;;;;;;;;6188871;23;20028;-86
2023/05/26 01:20:57;;;;;;;18.25;9.60;;;;;;;;;;6215335;23;20004;-86
2023/05/26 01:23:25;;;;;;;18.90;9.80;;;;;;;;;;6212967;23;20543;-87
2023/05/26 01:26:05;;;;;;;20.10;9.13;;;;;;;;;;6214863;23;20027;-87
2023/05/26 01:28:31;;;;;;;16.55;9.43;;;;;;;;;;6214762;23;20000;-85
2023/05/26 01:30:56;;;;;;;22.58;9.65;;;;;;;;;;6188689;23;20020;-86
2023/05/26 01:33:22;;;;;;;18.70;9.23;;;;;;;;;;6188771;23;20003;-86
2023/05/26 01:35:47;;;;;;;15.25;9.13;;;;;;;;;;6213829;23;20009;-86
2023/05/26 01:38:13;;;;;;;17.88;9.65;;;;;;;;;;6213521;23;20108;-85
2023/05/26 01:40:42;;;;;;;15.90;8.85;;;;;;;;;;6188314;23;20075;-86
2023/05/26 01:43:19;;;;;;;21.30;9.48;;;;;;;;;;6215241;23;20000;-85
2023/05/26 01:46:15;;;;;;;20.25;8.95;;;;;;;;;;6214712;23;20004;-85
2023/05/26 01:48:41;;;;;;;19.35;9.63;;;;;;;;;;6212013;23;20032;-86
2023/05/26 01:51:06;;;;;;;20.88;8.65;;;;;;;;;;6214921;23;20009;-87
2023/05/26 01:53:33;;;;;;;15.23;9.10;;;;;;;;;;6213539;23;20385;-86
2023/05/26 01:55:58;;;;;;;16.08;9.32;;;;;;;;;;6212746;23;20005;-85
2023/05/26 01:58:25;;;;;;;17.25;9.63;;;;;;;;;;6213448;23;20032;-85
2023/05/26 02:00:54;;;;;;;17.10;9.80;;;;;;;;;;6188365;23;20313;-86
2023/05/26 02:03:20;;;;;;;19.45;9.07;;;;;;;;;;6213704;23;20009;-86
2023/05/26 02:05:46;;;;;;;21.33;10.32;;;;;;;;;;6214990;23;20007;-85
2023/05/26 02:08:11;;;;;;;16.77;9.50;;;;;;;;;;6213398;23;20016;-85
2023/05/26 02:10:37;;;;;;;17.98;9.38;;;;;;;;;;6187956;23;20122;-86
2023/05/26 02:13:03;;;;;;;15.98;9.52;;;;;;;;;;6213115;23;20007;-86
2023/05/26 02:15:29;;;;;;;19.83;9.63;;;;;;;;;;6188050;23;20009;-86
2023/05/26 02:17:57;;;;;;;18.75;9.77;;;;;;;;;;6214279;23;20004;-86
2023/05/26 02:20:23;;;;;;;18.40;9.55;;;;;;;;;;6214689;23;20005;-86
2023/05/26 02:22:49;;;;;;;17.73;9.35;;;;;;;;;;6214790;23;20409;-86
2023/05/26 02:25:15;;;;;;;16.27;9.30;;;;;;;;;;6212729;23;20007;-86
2023/05/26 02:27:40;;;;;;;18.25;9.98;;;;;;;;;;6214721;23;20005;-86
2023/05/26 02:30:06;;;;;;;17.55;9.52;;;;;;;;;;6215284;23;20032;-87
2023/05/26 02:32:34;;;;;;;22.50;10.10;;;;;;;;;;6214735;23;20412;-87
2023/05/26 02:35:00;;;;;;;18.50;9.32;;;;;;;;;;6214482;23;20420;-87
2023/05/26 02:37:26;;;;;;;23.98;10.50;;;;;;;;;;6213239;23;20019;-87
2023/05/26 02:39:55;;;;;;;17.38;9.70;;;;;;;;;;6213187;23;20932;-87
2023/05/26 02:42:20;;;;;;;19.50;9.70;;;;;;;;;;6213439;23;20008;-87
2023/05/26 02:44:46;;;;;;;25.20;10.25;;;;;;;;;;6214747;23;20435;-87
2023/05/26 02:47:11;;;;;;;16.10;9.32;;;;;;;;;;6213060;23;20019;-86
2023/05/26 02:49:36;;;;;;;18.88;9.70;;;;;;;;;;6215027;23;20004;-86
2023/05/26 02:52:02;;;;;;;20.52;10.23;;;;;;;;;;6214178;23;20079;-86
2023/05/26 02:54:27;;;;;;;22.48;9.60;;;;;;;;;;6213109;23;20036;-86
2023/05/26 02:56:53;;;;;;;19.17;9.13;;;;;;;;;;6216726;23;20005;-85
2023/05/26 02:59:18;;;;;;;20.23;10.23;;;;;;;;;;6219889;23;20044;-84
2023/05/26 03:01:44;;;;;;;23.52;10.02;;;;;;;;;;6236372;23;20009;-85
2023/05/26 03:04:09;;;;;;;18.80;10.20;;;;;;;;;;6240991;23;19985;-85
2023/05/26 03:06:35;;;;;;;19.30;10.07;;;;;;;;;;6232574;23;20464;-86
2023/05/26 03:09:02;;;;;;;17.02;9.68;;;;;;;;;;6215782;23;20024;-86
2023/05/26 03:11:29;;;;;;;24.77;10.20;;;;;;;;;;6214705;23;20417;-85
2023/05/26 03:13:55;;;;;;;17.00;9.57;;;;;;;;;;6214108;23;20039;-85
2023/05/26 03:16:20;;;;;;;20.60;9.25;;;;;;;;;;6212795;23;20001;-85
2023/05/26 03:18:45;;;;;;;22.83;9.90;;;;;;;;;;6212761;23;20044;-86
2023/05/26 03:21:11;;;;;;;15.70;9.23;;;;;;;;;;6213744;23;20047;-85
2023/05/26 03:23:36;;;;;;;20.83;9.65;;;;;;;;;;6212461;23;20009;-85
2023/05/26 03:26:02;;;;;;;22.95;9.82;;;;;;;;;;6214151;23;20055;-86
2023/05/26 03:28:28;;;;;;;20.85;10.18;;;;;;;;;;6214287;23;20091;-84
2023/05/26 03:30:53;;;;;;;18.70;10.30;;;;;;;;;;6214241;23;20001;-85
2023/05/26 03:33:18;;;;;;;20.85;10.50;;;;;;;;;;6214035;23;20063;-84
2023/05/26 03:35:44;;;;;;;19.20;9.60;;;;;;;;;;6187836;23;20088;-84
2023/05/26 03:38:10;;;;;;;18.15;9.70;;;;;;;;;;6214200;23;20016;-85
2023/05/26 03:40:36;;;;;;;23.73;9.90;;;;;;;;;;6213810;23;20001;-85
2023/05/26 03:43:01;;;;;;;20.17;9.85;;;;;;;;;;6214428;23;20005;-85
2023/05/26 03:45:27;;;;;;;20.05;10.70;;;;;;;;;;6214301;23;20439;-84
2023/05/26 03:47:53;;;;;;;19.08;10.35;;;;;;;;;;6215360;23;20015;-85
2023/05/26 03:50:19;;;;;;;19.88;10.65;;;;;;;;;;6214516;23;20329;-85
2023/05/26 03:52:44;;;;;;;23.63;10.52;;;;;;;;;;6189200;23;20004;-85
2023/05/26 03:55:10;;;;;;;21.90;10.48;;;;;;;;;;6216257;23;20011;-85
2023/05/26 03:57:37;;;;;;;31.90;10.80;;;;;;;;;;6215551;23;20011;-85
2023/05/26 04:00:04;;;;;;;20.63;10.73;;;;;;;;;;6216380;23;20503;-84
2023/05/26 04:02:29;;;;;;;21.13;10.75;;;;;;;;;;6216206;23;20027;-85
2023/05/26 04:04:55;;;;;;;18.10;10.10;;;;;;;;;;6215192;23;20396;-85
2023/05/26 04:07:21;;;;;;;18.02;10.10;;;;;;;;;;6216906;23;20405;-84
2023/05/26 04:09:46;;;;;;;26.33;9.90;;;;;;;;;;6214319;23;20079;-85
2023/05/26 04:12:11;;;;;;;21.38;9.95;;;;;;;;;;6215567;23;19997;-84
2023/05/26 04:14:37;;;;;;;18.67;10.40;;;;;;;;;;6214343;23;20011;-84
2023/05/26 04:17:02;;;;;;;21.67;9.98;;;;;;;;;;6214362;23;20005;-84
2023/05/26 04:19:28;;;;;;;23.70;10.18;;;;;;;;;;6214192;23;20005;-85
2023/05/26 04:21:53;;;;;;;26.23;11.80;;;;;;;;;;6214667;23;19997;-83
2023/05/26 04:24:18;;;;;;;26.92;12.02;;;;;;;;;;6215508;23;20025;-83
2023/05/26 04:26:44;;;;;;;27.13;11.07;;;;;;;;;;6214023;23;20008;-84
2023/05/26 04:29:09;;;;;;;32.10;11.77;;;;;;;;;;6214347;23;20009;-85
2023/05/26 04:31:40;;;;;;;17.83;10.05;;;;;;;;;;6216472;23;20004;-84
2023/05/26 04:34:06;;;;;;;19.98;9.82;;;;;;;;;;6215935;23;20075;-85
2023/05/26 04:36:32;;;;;;;21.23;10.75;;;;;;;;;;6214231;23;20506;-83
2023/05/26 04:38:58;;;;;;;22.42;10.40;;;;;;;;;;6214518;23;20036;-78
2023/05/26 04:41:23;;;;;;;15.20;9.35;;;;;;;;;;6215884;23;20004;-78
2023/05/26 04:43:49;;;;;;;19.15;10.02;;;;;;;;;;6216293;23;20000;-78
2023/05/26 04:46:15;;;;;;;20.27;10.73;;;;;;;;;;6215121;23;20039;-78
2023/05/26 04:48:40;;;;;;;16.10;9.73;;;;;;;;;;6210832;23;20005;-77
2023/05/26 04:51:07;;;;;;;17.92;9.95;;;;;;;;;;6187618;23;20031;-78
2023/05/26 04:53:32;;;;;;;21.10;9.93;;;;;;;;;;6213586;23;20004;-77
2023/05/26 04:56:01;;;;;;;17.42;10.13;;;;;;;;;;6212604;23;20007;-77
2023/05/26 04:58:27;;;;;;;21.65;9.55;;;;;;;;;;6161099;23;20093;-76
2023/05/26 05:00:54;;;;;;;25.00;10.27;;;;;;;;;;6209912;23;20103;-79
2023/05/26 05:03:20;;;;;;;16.77;9.80;;;;;;;;;;6209126;23;20000;-78
2023/05/26 05:05:47;;;;;;;24.52;10.27;;;;;;;;;;6208783;23;20024;-77
2023/05/26 05:08:12;;;;;;;24.02;12.02;;;;;;;;;;6211186;23;20036;-77
2023/05/26 05:10:37;;;;;;;26.90;11.48;;;;;;;;;;6209821;23;20396;-78
2023/05/26 05:13:03;;;;;;;21.15;10.80;;;;;;;;;;6208443;23;20012;-78
2023/05/26 05:15:29;;;;;;;18.98;10.35;;;;;;;;;;6212073;23;20008;-77
2023/05/26 05:17:54;;;;;;;21.42;9.50;;;;;;;;;;6208533;23;20005;-76
2023/05/26 05:20:19;;;;;;;19.52;10.77;;;;;;;;;;6208789;23;20001;-76
2023/05/26 05:22:45;;;;;;;19.67;10.25;;;;;;;;;;6209380;23;20063;-77
2023/05/26 05:25:10;;;;;;;21.67;10.20;;;;;;;;;;6211234;23;20004;-76
2023/05/26 05:27:36;;;;;;;21.25;10.02;;;;;;;;;;6209440;23;19996;-75
2023/05/26 05:30:02;;;;;;;21.05;10.48;;;;;;;;;;6211543;23;20048;-76
2023/05/26 05:32:27;;;;;;;28.48;11.13;;;;;;;;;;6211365;23;20001;-77
2023/05/26 05:34:52;;;;;;;24.33;11.05;;;;;;;;;;6214021;23;20412;-76
2023/05/26 05:37:18;;;;;;;19.63;10.57;;;;;;;;;;6215665;23;20077;-78
2023/05/26 05:39:43;;;;;;;18.52;10.32;;;;;;;;;;6218478;23;20027;-77
2023/05/26 05:42:09;;;;;;;21.02;10.15;;;;;;;;;;6216921;23;20044;-79
2023/05/26 05:44:35;;;;;;;21.50;10.30;;;;;;;;;;6217755;23;20012;-78
2023/05/26 05:47:30;;;;;;;22.63;10.30;;;;;;;;;;6224217;23;20067;-78
2023/05/26 05:49:56;;;;;;;18.83;9.73;;;;;;;;;;6225075;23;20089;-77
2023/05/26 05:52:21;;;;;;;21.50;10.63;;;;;;;;;;6223899;23;20634;-74
2023/05/26 05:54:47;;;;;;;23.20;10.80;;;;;;;;;;6229596;23;20008;-77
2023/05/26 05:57:12;;;;;;;44.03;10.65;;;;;;;;;;6233164;23;20083;-75
2023/05/26 05:59:37;;;;;;;19.88;10.07;;;;;;;;;;6234110;23;20019;-77
2023/05/26 06:02:03;;;;;;;15.93;9.32;;;;;;;;;;6230166;23;20019;-77
2023/05/26 06:04:29;;;;;;;19.73;9.95;;;;;;;;;;6224000;23;20534;-76
2023/05/26 06:06:54;;;;;;;18.33;8.90;;;;;;;;;;6216269;23;20001;-76
2023/05/26 06:09:23;;;;;;;17.48;9.90;;;;;;;;;;6216214;23;20004;-76
2023/05/26 06:11:51;;;;;;;16.67;10.10;;;;;;;;;;6212830;23;20039;-75
2023/05/26 06:14:16;;;;;;;18.27;9.93;;;;;;;;;;6217227;23;20001;-75
2023/05/26 06:16:42;;;;;;;18.88;9.18;;;;;;;;;;6218787;23;20035;-75
2023/05/26 06:19:08;;;;;;;17.70;9.38;;;;;;;;;;6211762;23;20024;-76
2023/05/26 06:21:33;;;;;;;17.40;9.77;;;;;;;;;;6212539;23;19996;-76
2023/05/26 06:23:59;;;;;;;22.65;9.75;;;;;;;;;;6215629;23;20001;-77
2023/05/26 06:26:26;;;;;;;16.92;9.52;;;;;;;;;;6213495;23;20420;-76
2023/05/26 06:28:51;;;;;;;17.35;9.30;;;;;;;;;;6216031;23;20015;-75
2023/05/26 06:31:17;;;;;;;20.60;9.65;;;;;;;;;;6224681;23;20020;-77
2023/05/26 06:33:45;;;;;;;16.33;9.30;;;;;;;;;;6211310;23;20735;-76
2023/05/26 06:36:11;;;;;;;16.13;9.85;;;;;;;;;;6211078;23;20001;-76
2023/05/26 06:38:36;;;;;;;15.10;8.73;;;;;;;;;;6213893;23;20075;-76
2023/05/26 06:41:02;;;;;;;16.02;8.73;;;;;;;;;;6213014;23;20729;-77
2023/05/26 06:43:27;;;;;;;18.67;9.20;;;;;;;;;;6184311;23;20009;-78
2023/05/26 06:45:53;;;;;;;17.02;8.70;;;;;;;;;;6209653;23;20420;-77
2023/05/26 06:48:18;;;;;;;16.20;8.57;;;;;;;;;;6211846;23;20439;-77
2023/05/26 06:50:44;;;;;;;15.82;9.35;;;;;;;;;;6212156;23;20175;-76
2023/05/26 06:53:09;;;;;;;17.65;8.70;;;;;;;;;;6215343;23;20499;-77
2023/05/26 06:55:35;;;;;;;16.00;8.43;;;;;;;;;;6211266;23;20002;-77
2023/05/26 06:58:03;;;;;;;16.33;8.75;;;;;;;;;;6210068;23;20046;-76
2023/05/26 07:00:30;;;;;;;13.73;9.27;;;;;;;;;;6187970;23;20432;-76
2023/05/26 07:02:55;;;;;;;14.15;7.85;;;;;;;;;;6210530;23;20009;-76
2023/05/26 07:05:21;;;;;;;13.05;8.05;;;;;;;;;;6210157;23;19997;-78
2023/05/26 07:07:46;;;;;;;11.00;8.23;;;;;;;;;;6210207;23;20013;-78
2023/05/26 07:10:12;;;;;;;11.70;7.90;;;;;;;;;;6210602;23;19996;-79
2023/05/26 07:12:39;;;;;;;14.18;8.88;;;;;;;;;;6211171;23;20047;-78
2023/05/26 07:15:05;;;;;;;14.50;7.63;;;;;;;;;;6210086;23;20004;-78
2023/05/26 07:17:31;;;;;;;11.98;8.23;;;;;;;;;;6212013;23;20005;-78
2023/05/26 07:19:56;;;;;;;13.73;8.13;;;;;;;;;;6210221;23;20005;-80
2023/05/26 07:22:22;;;;;;;14.65;8.63;;;;;;;;;;6211700;23;20004;-78
2023/05/26 07:24:49;;;;;;;10.82;8.13;;;;;;;;;;6212205;23;20005;-81
2023/05/26 07:27:15;;;;;;;15.25;7.93;;;;;;;;;;6185594;23;20009;-79
2023/05/26 07:29:40;;;;;;;12.05;8.00;;;;;;;;;;6213584;23;20198;-78
2023/05/26 07:32:05;;;;;;;12.82;7.63;;;;;;;;;;6211698;23;20071;-79
2023/05/26 07:34:31;;;;;;;12.38;7.28;;;;;;;;;;6212746;23;20001;-77
2023/05/26 07:36:56;;;;;;;13.25;8.15;;;;;;;;;;6209764;23;20020;-76
2023/05/26 07:39:22;;;;;;;11.45;8.13;;;;;;;;;;6211394;23;20072;-78
2023/05/26 07:41:47;;;;;;;11.32;8.00;;;;;;;;;;6211625;23;20067;-77
2023/05/26 07:44:12;;;;;;;16.15;8.02;;;;;;;;;;6212275;23;20579;-78
2023/05/26 07:46:38;;;;;;;14.35;8.38;;;;;;;;;;6211116;23;20005;-77
2023/05/26 07:49:04;;;;;;;12.13;8.57;;;;;;;;;;6212096;23;20000;-78
2023/05/26 07:51:30;;;;;;;14.02;8.73;;;;;;;;;;6210605;23;20005;-78
2023/05/26 07:53:55;;;;;;;17.08;7.78;;;;;;;;;;6211230;23;20005;-76
2023/05/26 07:56:20;;;;;;;16.60;8.40;;;;;;;;;;6211631;23;20005;-78
2023/05/26 07:58:47;;;;;;;16.05;7.88;;;;;;;;;;6182594;23;20059;-78
2023/05/26 08:01:12;;;;;;;11.32;7.25;;;;;;;;;;6210542;23;20005;-77
2023/05/26 08:03:38;;;;;;;12.35;7.43;;;;;;;;;;6206350;23;20463;-77
2023/05/26 08:06:03;;;;;;;13.07;7.88;;;;;;;;;;6209925;23;20008;-77
2023/05/26 08:08:29;;;;;;;12.60;8.45;;;;;;;;;;6209721;23;20009;-77
2023/05/26 08:10:54;;;;;;;12.70;8.00;;;;;;;;;;6183866;23;20012;-78
2023/05/26 08:13:20;;;;;;;14.23;8.07;;;;;;;;;;6210670;23;20011;-78
2023/05/26 08:15:45;;;;;;;10.20;7.75;;;;;;;;;;6210187;23;20080;-75
2023/05/26 08:18:11;;;;;;;11.35;7.32;;;;;;;;;;6210193;23;20028;-78
2023/05/26 08:20:36;;;;;;;11.20;7.72;;;;;;;;;;6207599;23;20031;-78
2023/05/26 08:23:02;;;;;;;15.45;7.38;;;;;;;;;;6208828;23;20000;-78
2023/05/26 08:25:28;;;;;;;16.58;7.60;;;;;;;;;;6207961;23;20032;-78
2023/05/26 08:27:54;;;;;;;10.38;7.30;;;;;;;;;;6209318;23;20172;-78
2023/05/26 08:30:19;;;;;;;9.57;7.38;;;;;;;;;;6182740;23;20001;-78
2023/05/26 08:32:45;;;;;;;11.27;7.32;;;;;;;;;;6207199;23;20004;-77
2023/05/26 08:35:11;;;;;;;11.52;6.95;;;;;;;;;;6214368;23;20013;-78
2023/05/26 08:37:36;;;;;;;9.48;6.32;;;;;;;;;;6213508;23;20039;-78
2023/05/26 08:40:04;;;;;;;11.38;7.07;;;;;;;;;;6214220;23;20001;-78
2023/05/26 08:42:32;;;;;;;9.60;6.45;;;;;;;;;;6214523;23;20416;-76
2023/05/26 08:45:01;;;;;;;8.88;6.85;;;;;;;;;;6188540;23;20009;-78
2023/05/26 08:47:27;;;;;;;9.00;7.07;;;;;;;;;;6215318;23;20074;-77
2023/05/26 08:49:55;;;;;;;10.07;6.90;;;;;;;;;;6214950;23;20351;-77
2023/05/26 08:52:22;;;;;;;9.80;7.10;;;;;;;;;;6220640;23;20045;-78
2023/05/26 08:54:48;;;;;;;11.38;6.70;;;;;;;;;;6215145;23;20005;-74
2023/05/26 08:57:13;;;;;;;11.88;7.32;;;;;;;;;;6214004;23;20023;-76
2023/05/26 08:59:41;;;;;;;9.40;6.68;;;;;;;;;;6218076;23;20115;-76
2023/05/26 09:02:08;;;;;;;10.05;6.72;;;;;;;;;;6220732;23;20030;-78
2023/05/26 09:04:33;;;;;;;12.02;6.80;;;;;;;;;;6213944;23;20005;-77
2023/05/26 09:06:58;;;;;;;11.32;6.57;;;;;;;;;;6211817;23;20048;-77
2023/05/26 09:09:25;;;;;;;9.50;6.30;;;;;;;;;;6186842;23;20012;-78
2023/05/26 09:11:51;;;;;;;8.77;5.88;;;;;;;;;;6213030;23;20067;-77
2023/05/26 09:14:17;;;;;;;8.20;6.10;;;;;;;;;;6186665;23;20332;-75
2023/05/26 09:16:42;;;;;;;9.55;6.45;;;;;;;;;;6212455;23;20031;-76
2023/05/26 09:19:15;;;;;;;13.18;6.57;;;;;;;;;;6161343;23;20013;-76
2023/05/26 09:21:50;;;;;;;10.15;5.93;;;;;;;;;;6213051;23;20432;-76
2023/05/26 09:24:17;;;;;;;9.52;6.35;;;;;;;;;;6213125;23;20004;-75
2023/05/26 09:26:44;;;;;;;11.13;7.22;;;;;;;;;;6214952;23;20016;-78
2023/05/26 09:29:11;;;;;;;10.98;6.97;;;;;;;;;;6189052;23;20359;-75
2023/05/26 09:31:42;;;;;;;11.70;6.22;;;;;;;;;;6214153;23;20000;-75
2023/05/26 09:34:08;;;;;;;9.43;6.47;;;;;;;;;;6213494;23;20007;-75
2023/05/26 09:36:34;;;;;;;9.85;7.18;;;;;;;;;;6213756;23;20502;-75
2023/05/26 09:39:00;;;;;;;9.88;6.82;;;;;;;;;;6213245;23;20005;-75
2023/05/26 09:41:37;;;;;;;14.43;8.50;;;;;;;;;;6161447;23;20008;-75
2023/05/26 09:44:18;;;;;;;10.30;7.82;;;;;;;;;;6211289;23;20091;-77
2023/05/26 09:46:44;;;;;;;14.05;8.10;;;;;;;;;;6186251;23;20000;-77
2023/05/26 09:49:15;;;;;;;16.13;7.90;;;;;;;;;;6214662;23;20011;-77
2023/05/26 09:51:48;;;;;;;20.85;8.75;;;;;;;;;;6209693;23;20009;-78
2023/05/26 09:54:14;;;;;;;13.43;8.40;;;;;;;;;;6185851;23;20023;-77
2023/05/26 09:56:58;;;;;;;15.30;9.05;;;;;;;;;;6212263;23;20044;-78
2023/05/26 09:59:27;;;;;;;14.98;8.52;;;;;;;;;;6211957;23;20011;-75
2023/05/26 10:01:52;;;;;;;12.80;8.63;;;;;;;;;;6186391;23;20008;-77
2023/05/26 10:04:18;;;;;;;12.32;8.68;;;;;;;;;;6210443;23;19996;-74
2023/05/26 10:06:43;;;;;;;23.85;9.15;;;;;;;;;;6185760;23;20012;-76
2023/05/26 10:09:09;;;;;;;12.93;8.60;;;;;;;;;;6211843;23;20004;-75
2023/05/26 10:11:45;;;;;;;16.50;9.73;;;;;;;;;;6210838;23;19996;-76
2023/05/26 10:14:10;;;;;;;11.65;8.75;;;;;;;;;;6210987;23;20001;-77
2023/05/26 10:16:36;;;;;;;17.52;8.90;;;;;;;;;;6211000;23;20004;-79
2023/05/26 10:19:02;;;;;;;19.45;9.40;;;;;;;;;;6187182;23;20004;-77
2023/05/26 10:21:30;;;;;;;14.52;10.35;;;;;;;;;;6187726;23;20000;-77
2023/05/26 10:24:06;;;;;;;12.47;9.33;;;;;;;;;;6188580;23;20422;-76
2023/05/26 10:26:48;;;;;;;13.80;9.40;;;;;;;;;;6188297;23;20012;-77
2023/05/26 10:29:16;;;;;;;11.85;9.02;;;;;;;;;;6212116;23;20001;-76
2023/05/26 10:31:42;;;;;;;11.68;8.77;;;;;;;;;;6211909;23;19997;-75
2023/05/26 10:34:14;;;;;;;13.25;8.48;;;;;;;;;;6187707;23;20075;-76
2023/05/26 10:36:41;;;;;;;11.52;8.05;;;;;;;;;;6213299;23;20012;-78
2023/05/26 10:39:10;;;;;;;12.98;7.88;;;;;;;;;;6212799;23;20017;-77
2023/05/26 10:41:50;;;;;;;11.32;8.15;;;;;;;;;;6211878;23;20009;-77
2023/05/26 10:44:54;;;;;;;10.90;8.20;;;;;;;;;;6213246;23;20432;-78
2023/05/26 10:47:19;;;;;;;12.45;7.45;;;;;;;;;;6091241;23;20490;-75
2023/05/26 10:49:52;;;;;;;11.00;7.40;;;;;;;;;;6190607;23;20008;-76
2023/05/26 10:52:18;;;;;;;9.13;7.18;;;;;;;;;;6212038;23;20009;-76
2023/05/26 10:54:44;;;;;;;12.52;8.00;;;;;;;;;;6213916;23;20020;-76
2023/05/26 10:57:30;;;;;;;9.80;7.60;;;;;;;;;;6213320;23;20300;-79
2023/05/26 10:59:56;;;;;;;13.13;8.00;;;;;;;;;;6187373;23;20004;-77
2023/05/26 11:02:21;;;;;;;10.40;7.13;;;;;;;;;;6212489;23;20004;-76
2023/05/26 11:04:47;;;;;;;9.93;7.38;;;;;;;;;;6210205;23;20001;-77
2023/05/26 11:07:26;;;;;;;10.40;7.40;;;;;;;;;;6209697;23;20008;-77
2023/05/26 11:10:02;;;;;;;12.23;7.60;;;;;;;;;;6210505;23;20009;-77
2023/05/26 11:12:48;;;;;;;13.05;8.27;;;;;;;;;;6210436;23;20009;-76
2023/05/26 11:15:31;;;;;;;10.55;7.35;;;;;;;;;;6211920;23;20031;-76
2023/05/26 11:18:01;;;;;;;11.20;7.63;;;;;;;;;;6211910;23;20115;-78
2023/05/26 11:20:27;;;;;;;14.77;8.00;;;;;;;;;;6213030;23;20047;-77
2023/05/26 11:22:53;;;;;;;12.75;7.80;;;;;;;;;;6212207;23;20012;-77
2023/05/26 11:25:18;;;;;;;9.40;7.32;;;;;;;;;;6212895;23;19996;-77
2023/05/26 11:27:46;;;;;;;9.38;7.57;;;;;;;;;;6211286;23;20032;-78
2023/05/26 11:30:12;;;;;;;11.57;7.40;;;;;;;;;;6207989;23;20004;-78
2023/05/26 11:32:47;;;;;;;12.85;7.82;;;;;;;;;;6211948;23;20001;-76
2023/05/26 11:35:26;;;;;;;10.63;7.68;;;;;;;;;;6208330;23;20005;-76
2023/05/26 11:37:52;;;;;;;9.82;7.93;;;;;;;;;;6211943;23;20036;-78
2023/05/26 11:40:17;;;;;;;11.57;7.43;;;;;;;;;;6211131;23;20012;-76
2023/05/26 11:42:46;;;;;;;15.18;9.88;;;;;;;;;;6161902;23;20005;-77
2023/05/26 11:45:11;;;;;;;12.10;8.30;;;;;;;;;;6184573;23;20031;-78
2023/05/26 11:47:37;;;;;;;12.10;8.90;;;;;;;;;;6210211;23;20142;-77
2023/05/26 11:50:09;;;;;;;13.82;8.70;;;;;;;;;;6183235;23;20076;-75
2023/05/26 11:52:40;;;;;;;14.38;8.18;;;;;;;;;;6207752;23;20620;-76
2023/05/26 11:55:06;;;;;;;11.27;8.13;;;;;;;;;;6210141;23;20539;-77
2023/05/26 11:57:33;;;;;;;9.90;8.10;;;;;;;;;;6210140;23;20000;-75
2023/05/26 12:00:24;;;;;;;11.40;7.35;;;;;;;;;;6210860;23;20095;-77
2023/05/26 12:02:49;;;;;;;11.48;6.55;;;;;;;;;;6213198;23;20437;-77
2023/05/26 12:05:29;;;;;;;18.70;7.05;;;;;;;;;;6212235;23;20005;-77
2023/05/26 12:08:02;;;;;;;11.50;7.70;;;;;;;;;;6212504;23;20005;-77
2023/05/26 12:10:28;;;;;;;14.02;7.43;;;;;;;;;;6213866;23;20001;-76
2023/05/26 12:12:53;;;;;;;10.70;7.18;;;;;;;;;;6213975;23;19993;-77
2023/05/26 12:15:20;;;;;;;17.60;11.68;;;;;;;;;;6215319;23;20412;-78
2023/05/26 12:17:46;;;;;;;13.10;8.00;;;;;;;;;;6213790;23;20004;-75
2023/05/26 12:20:16;;;;;;;13.52;6.57;;;;;;;;;;6214100;23;20001;-76
2023/05/26 12:22:42;;;;;;;12.18;7.53;;;;;;;;;;6214017;23;20001;-76
2023/05/26 12:25:07;;;;;;;10.05;7.22;;;;;;;;;;6215636;23;20086;-76
2023/05/26 12:27:37;;;;;;;9.13;6.68;;;;;;;;;;6213740;23;20015;-76
2023/05/26 12:30:23;;;;;;;8.20;6.35;;;;;;;;;;6214492;23;20015;-76
2023/05/26 12:32:48;;;;;;;7.63;6.22;;;;;;;;;;6189331;23;20000;-86
2023/05/26 12:35:14;;;;;;;9.93;7.00;;;;;;;;;;6214454;23;20451;-85
2023/05/26 12:37:39;;;;;;;11.73;6.43;;;;;;;;;;6213759;23;20001;-84
2023/05/26 12:40:06;;;;;;;11.35;6.68;;;;;;;;;;6214460;23;20074;-86
2023/05/26 12:42:31;;;;;;;10.63;7.30;;;;;;;;;;6215551;23;20005;-87
2023/05/26 12:44:57;;;;;;;9.38;6.50;;;;;;;;;;6188757;23;20086;-87
2023/05/26 12:47:23;;;;;;;9.63;5.88;;;;;;;;;;6214839;23;20495;-86
2023/05/26 12:49:51;;;;;;;13.43;5.68;;;;;;;;;;6215079;23;20008;-84
2023/05/26 12:52:18;;;;;;;12.77;6.03;;;;;;;;;;6215114;23;19997;-86
2023/05/26 12:54:43;;;;;;;8.23;5.35;;;;;;;;;;6213709;23;20420;-86
2023/05/26 12:57:08;;;;;;;13.75;5.55;;;;;;;;;;6215554;23;20001;-85
2023/05/26 12:59:35;;;;;;;7.93;5.07;;;;;;;;;;6218813;23;20004;-87
2023/05/26 13:02:01;;;;;;;6.57;4.88;;;;;;;;;;6192604;23;20608;-86
2023/05/26 13:04:26;;;;;;;6.18;5.03;;;;;;;;;;6213960;23;20235;-84
2023/05/26 13:06:52;;;;;;;8.77;4.97;;;;;;;;;;6225694;23;20489;-85
2023/05/26 13:09:18;;;;;;;8.18;4.93;;;;;;;;;;6219134;23;20019;-85
2023/05/26 13:11:43;;;;;;;5.47;4.53;;;;;;;;;;6216866;23;20005;-84
2023/05/26 13:14:10;;;;;;;8.05;4.85;;;;;;;;;;6214783;23;20071;-84
2023/05/26 13:16:37;;;;;;;10.40;6.35;;;;;;;;;;6213904;23;20004;-85
2023/05/26 13:19:03;;;;;;;9.27;6.20;;;;;;;;;;6212117;23;20524;-83
2023/05/26 13:21:28;;;;;;;13.15;7.43;;;;;;;;;;6187723;23;20424;-84
2023/05/26 13:23:55;;;;;;;12.55;7.32;;;;;;;;;;6213262;23;19997;-85
2023/05/26 13:26:21;;;;;;;16.77;7.15;;;;;;;;;;6212143;23;20402;-86
2023/05/26 13:28:47;;;;;;;14.75;9.00;;;;;;;;;;6214084;23;19997;-84
2023/05/26 13:31:12;;;;;;;11.75;8.30;;;;;;;;;;6215838;23;20001;-85
2023/05/26 13:33:38;;;;;;;19.35;7.70;;;;;;;;;;6219681;23;20336;-86
2023/05/26 13:36:03;;;;;;;11.93;6.35;;;;;;;;;;6229777;23;19996;-84
2023/05/26 13:38:29;;;;;;;8.15;6.13;;;;;;;;;;6236754;23;20027;-84
2023/05/26 13:40:55;;;;;;;9.60;6.20;;;;;;;;;;6234785;23;20064;-84
2023/05/26 13:43:22;;;;;;;13.32;6.50;;;;;;;;;;6229818;23;19998;-85
2023/05/26 13:45:48;;;;;;;10.68;6.57;;;;;;;;;;6219256;23;20035;-83
2023/05/26 13:48:13;;;;;;;10.02;5.78;;;;;;;;;;6216424;23;20026;-86
2023/05/26 13:50:39;;;;;;;7.30;5.13;;;;;;;;;;6216065;23;20000;-87
2023/05/26 13:53:05;;;;;;;7.97;5.03;;;;;;;;;;6189676;23;20005;-87
2023/05/26 13:55:30;;;;;;;7.57;4.75;;;;;;;;;;6216689;23;20084;-85
2023/05/26 13:57:56;;;;;;;11.75;5.22;;;;;;;;;;6220769;23;20617;-85
2023/05/26 14:00:21;;;;;;;11.63;5.18;;;;;;;;;;6227840;23;20008;-85
2023/05/26 14:02:47;;;;;;;12.13;5.35;;;;;;;;;;6227160;23;20024;-85
2023/05/26 14:05:14;;;;;;;8.13;5.78;;;;;;;;;;6231695;23;19988;-84
2023/05/26 14:07:40;;;;;;;10.63;6.03;;;;;;;;;;6235222;23;20020;-84
2023/05/26 14:10:06;;;;;;;11.63;5.80;;;;;;;;;;6236872;23;20060;-86
2023/05/26 14:12:32;;;;;;;9.00;6.22;;;;;;;;;;6234401;23;20012;-85
2023/05/26 14:14:58;;;;;;;12.70;7.10;;;;;;;;;;6192689;23;20015;-84
2023/05/26 14:17:23;;;;;;;10.80;7.88;;;;;;;;;;6216059;23;20004;-84
2023/05/26 14:19:49;;;;;;;13.63;6.60;;;;;;;;;;6214393;23;20339;-86
2023/05/26 14:22:15;;;;;;;13.05;7.22;;;;;;;;;;6214854;23;20012;-88
2023/05/26 14:24:41;;;;;;;12.02;8.27;;;;;;;;;;6214746;23;20463;-86
2023/05/26 14:27:07;;;;;;;15.27;8.43;;;;;;;;;;6213383;23;20455;-85